sensor_id;sensor_type;location;lat;lon;timestamp;P1;durP1;ratioP1;P2;durP2;ratioP2
51451;SDS011;37521;52.020;-1.740;2023-12-04T00:02:14;1.48;;;1.38;;
51451;SDS011;37521;52.020;-1.740;2023-12-04T00:04:42;1.55;;;0.93;;
51451;SDS011;37521;52.020;-1.740;2023-12-04T00:07:13;1.02;;;0.93;;
51451;SDS011;37521;52.020;-1.740;2023-12-04T00:09:41;1.10;;;1.00;;
51451;SDS011;37521;52.020;-1.740;2023-12-04T00:12:10;1.35;;;0.88;;
51451;SDS011;37521;52.020;-1.740;2023-12-04T00:14:39;2.90;;;1.25;;
51451;SDS011;37521;52.020;-1.740;2023-12-04T00:17:07;1.83;;;1.33;;
51451;SDS011;37521;52.020;-1.740;2023-12-04T00:19:36;1.95;;;1.35;;
51451;SDS011;37521;52.020;-1.740;2023-12-04T00:22:05;1.30;;;1.15;;
51451;SDS011;37521;52.020;-1.740;2023-12-04T00:24:35;1.00;;;0.90;;
51451;SDS011;37521;52.020;-1.740;2023-12-04T00:27:04;1.30;;;0.90;;
51451;SDS011;37521;52.020;-1.740;2023-12-04T00:29:33;2.10;;;0.85;;
51451;SDS011;37521;52.020;-1.740;2023-12-04T00:32:01;3.17;;;1.35;;
51451;SDS011;37521;52.020;-1.740;2023-12-04T00:34:30;0.77;;;0.70;;
51451;SDS011;37521;52.020;-1.740;2023-12-04T00:37:00;1.42;;;0.90;;
51451;SDS011;37521;52.020;-1.740;2023-12-04T00:39:28;1.55;;;1.23;;
51451;SDS011;37521;52.020;-1.740;2023-12-04T00:41:59;0.82;;;0.77;;
51451;SDS011;37521;52.020;-1.740;2023-12-04T00:44:28;1.35;;;0.93;;
51451;SDS011;37521;52.020;-1.740;2023-12-04T00:46:56;1.02;;;0.70;;
51451;SDS011;37521;52.020;-1.740;2023-12-04T00:49:25;1.23;;;0.77;;
51451;SDS011;37521;52.020;-1.740;2023-12-04T00:51:55;0.75;;;0.70;;
51451;SDS011;37521;52.020;-1.740;2023-12-04T00:54:24;0.73;;;0.73;;
51451;SDS011;37521;52.020;-1.740;2023-12-04T00:56:53;1.27;;;0.70;;
51451;SDS011;37521;52.020;-1.740;2023-12-04T00:59:23;1.27;;;0.90;;
51451;SDS011;37521;52.020;-1.740;2023-12-04T01:01:51;0.82;;;0.63;;
51451;SDS011;37521;52.020;-1.740;2023-12-04T01:04:20;0.88;;;0.63;;
51451;SDS011;37521;52.020;-1.740;2023-12-04T01:06:49;0.77;;;0.60;;
51451;SDS011;37521;52.020;-1.740;2023-12-04T01:09:17;3.60;;;0.60;;
51451;SDS011;37521;52.020;-1.740;2023-12-04T01:11:51;0.73;;;0.45;;
51451;SDS011;37521;52.020;-1.740;2023-12-04T01:14:21;0.95;;;0.82;;
51451;SDS011;37521;52.020;-1.740;2023-12-04T01:16:51;0.85;;;0.47;;
51451;SDS011;37521;52.020;-1.740;2023-12-04T01:19:20;0.85;;;0.70;;
51451;SDS011;37521;52.020;-1.740;2023-12-04T01:21:48;0.50;;;0.50;;
51451;SDS011;37521;52.020;-1.740;2023-12-04T01:24:17;0.40;;;0.40;;
51451;SDS011;37521;52.020;-1.740;2023-12-04T01:26:46;0.50;;;0.50;;
51451;SDS011;37521;52.020;-1.740;2023-12-04T01:29:15;0.60;;;0.50;;
51451;SDS011;37521;52.020;-1.740;2023-12-04T01:31:45;0.70;;;0.40;;
51451;SDS011;37521;52.020;-1.740;2023-12-04T01:34:13;0.45;;;0.40;;
51451;SDS011;37521;52.020;-1.740;2023-12-04T01:36:42;0.40;;;0.35;;
51451;SDS011;37521;52.020;-1.740;2023-12-04T01:39:11;0.90;;;0.47;;
51451;SDS011;37521;52.020;-1.740;2023-12-04T01:41:39;0.70;;;0.40;;
51451;SDS011;37521;52.020;-1.740;2023-12-04T01:44:08;0.82;;;0.47;;
51451;SDS011;37521;52.020;-1.740;2023-12-04T01:46:37;0.30;;;0.30;;
51451;SDS011;37521;52.020;-1.740;2023-12-04T01:49:07;1.08;;;0.30;;
51451;SDS011;37521;52.020;-1.740;2023-12-04T01:51:37;0.28;;;0.28;;
51451;SDS011;37521;52.020;-1.740;2023-12-04T01:54:05;0.50;;;0.50;;
51451;SDS011;37521;52.020;-1.740;2023-12-04T01:56:35;0.70;;;0.60;;
51451;SDS011;37521;52.020;-1.740;2023-12-04T01:59:04;0.47;;;0.47;;
51451;SDS011;37521;52.020;-1.740;2023-12-04T02:01:33;0.38;;;0.28;;
51451;SDS011;37521;52.020;-1.740;2023-12-04T02:04:03;0.20;;;0.20;;
51451;SDS011;37521;52.020;-1.740;2023-12-04T02:06:34;0.60;;;0.22;;
51451;SDS011;37521;52.020;-1.740;2023-12-04T02:09:03;0.80;;;0.50;;
51451;SDS011;37521;52.020;-1.740;2023-12-04T02:11:33;0.32;;;0.32;;
51451;SDS011;37521;52.020;-1.740;2023-12-04T02:14:02;1.17;;;0.43;;
51451;SDS011;37521;52.020;-1.740;2023-12-04T02:16:31;0.75;;;0.60;;
51451;SDS011;37521;52.020;-1.740;2023-12-04T02:19:03;0.45;;;0.43;;
51451;SDS011;37521;52.020;-1.740;2023-12-04T02:21:32;0.40;;;0.38;;
51451;SDS011;37521;52.020;-1.740;2023-12-04T02:24:03;1.23;;;0.47;;
51451;SDS011;37521;52.020;-1.740;2023-12-04T02:26:34;0.95;;;0.50;;
51451;SDS011;37521;52.020;-1.740;2023-12-04T02:29:07;0.98;;;0.93;;
51451;SDS011;37521;52.020;-1.740;2023-12-04T02:31:41;0.80;;;0.20;;
51451;SDS011;37521;52.020;-1.740;2023-12-04T02:34:11;0.30;;;0.30;;
51451;SDS011;37521;52.020;-1.740;2023-12-04T02:36:42;1.67;;;0.65;;
51451;SDS011;37521;52.020;-1.740;2023-12-04T02:39:14;0.60;;;0.43;;
51451;SDS011;37521;52.020;-1.740;2023-12-04T02:41:43;0.47;;;0.32;;
51451;SDS011;37521;52.020;-1.740;2023-12-04T02:44:11;0.47;;;0.30;;
51451;SDS011;37521;52.020;-1.740;2023-12-04T02:46:40;0.95;;;0.80;;
51451;SDS011;37521;52.020;-1.740;2023-12-04T02:49:09;0.52;;;0.32;;
51451;SDS011;37521;52.020;-1.740;2023-12-04T02:51:40;0.30;;;0.25;;
51451;SDS011;37521;52.020;-1.740;2023-12-04T02:54:09;2.15;;;0.68;;
51451;SDS011;37521;52.020;-1.740;2023-12-04T02:56:39;0.60;;;0.50;;
51451;SDS011;37521;52.020;-1.740;2023-12-04T02:59:08;1.25;;;0.70;;
51451;SDS011;37521;52.020;-1.740;2023-12-04T03:01:36;0.90;;;0.60;;
51451;SDS011;37521;52.020;-1.740;2023-12-04T03:04:05;1.00;;;0.45;;
51451;SDS011;37521;52.020;-1.740;2023-12-04T03:06:34;0.43;;;0.43;;
51451;SDS011;37521;52.020;-1.740;2023-12-04T03:09:03;0.57;;;0.45;;
51451;SDS011;37521;52.020;-1.740;2023-12-04T03:11:32;1.50;;;0.73;;
51451;SDS011;37521;52.020;-1.740;2023-12-04T03:14:02;0.70;;;0.70;;
51451;SDS011;37521;52.020;-1.740;2023-12-04T03:16:31;0.50;;;0.50;;
51451;SDS011;37521;52.020;-1.740;2023-12-04T03:18:59;0.50;;;0.50;;
51451;SDS011;37521;52.020;-1.740;2023-12-04T03:21:28;0.35;;;0.25;;
51451;SDS011;37521;52.020;-1.740;2023-12-04T03:23:57;0.55;;;0.50;;
51451;SDS011;37521;52.020;-1.740;2023-12-04T03:26:26;0.40;;;0.30;;
51451;SDS011;37521;52.020;-1.740;2023-12-04T03:28:55;1.80;;;0.60;;
51451;SDS011;37521;52.020;-1.740;2023-12-04T03:31:25;1.00;;;0.32;;
51451;SDS011;37521;52.020;-1.740;2023-12-04T03:33:55;1.00;;;0.55;;
51451;SDS011;37521;52.020;-1.740;2023-12-04T03:36:23;0.88;;;0.88;;
51451;SDS011;37521;52.020;-1.740;2023-12-04T03:38:52;0.40;;;0.38;;
51451;SDS011;37521;52.020;-1.740;2023-12-04T03:41:21;0.22;;;0.22;;
51451;SDS011;37521;52.020;-1.740;2023-12-04T03:43:50;2.65;;;0.50;;
51451;SDS011;37521;52.020;-1.740;2023-12-04T03:46:18;0.60;;;0.50;;
51451;SDS011;37521;52.020;-1.740;2023-12-04T03:48:49;0.57;;;0.50;;
51451;SDS011;37521;52.020;-1.740;2023-12-04T03:51:18;3.20;;;0.68;;
51451;SDS011;37521;52.020;-1.740;2023-12-04T03:53:47;0.30;;;0.28;;
51451;SDS011;37521;52.020;-1.740;2023-12-04T03:56:15;0.35;;;0.35;;
51451;SDS011;37521;52.020;-1.740;2023-12-04T03:58:44;1.65;;;0.43;;
51451;SDS011;37521;52.020;-1.740;2023-12-04T04:01:13;0.40;;;0.25;;
51451;SDS011;37521;52.020;-1.740;2023-12-04T04:03:41;0.63;;;0.20;;
51451;SDS011;37521;52.020;-1.740;2023-12-04T04:06:14;0.40;;;0.40;;
51451;SDS011;37521;52.020;-1.740;2023-12-04T04:08:43;0.20;;;0.20;;
51451;SDS011;37521;52.020;-1.740;2023-12-04T04:11:11;0.93;;;0.63;;
51451;SDS011;37521;52.020;-1.740;2023-12-04T04:13:40;0.25;;;0.20;;
51451;SDS011;37521;52.020;-1.740;2023-12-04T04:16:13;0.52;;;0.47;;
51451;SDS011;37521;52.020;-1.740;2023-12-04T04:18:43;0.20;;;0.20;;
51451;SDS011;37521;52.020;-1.740;2023-12-04T04:21:12;0.15;;;0.15;;
51451;SDS011;37521;52.020;-1.740;2023-12-04T04:23:42;0.30;;;0.30;;
51451;SDS011;37521;52.020;-1.740;2023-12-04T04:26:10;0.30;;;0.30;;
51451;SDS011;37521;52.020;-1.740;2023-12-04T04:28:39;0.28;;;0.28;;
51451;SDS011;37521;52.020;-1.740;2023-12-04T04:31:08;0.20;;;0.20;;
51451;SDS011;37521;52.020;-1.740;2023-12-04T04:33:36;0.28;;;0.20;;
51451;SDS011;37521;52.020;-1.740;2023-12-04T04:36:05;0.70;;;0.50;;
51451;SDS011;37521;52.020;-1.740;2023-12-04T04:38:40;0.40;;;0.40;;
51451;SDS011;37521;52.020;-1.740;2023-12-04T04:41:12;0.43;;;0.40;;
51451;SDS011;37521;52.020;-1.740;2023-12-04T04:43:42;0.20;;;0.20;;
51451;SDS011;37521;52.020;-1.740;2023-12-04T04:46:10;0.32;;;0.20;;
51451;SDS011;37521;52.020;-1.740;2023-12-04T04:48:39;0.52;;;0.40;;
51451;SDS011;37521;52.020;-1.740;2023-12-04T04:51:09;1.00;;;0.43;;
51451;SDS011;37521;52.020;-1.740;2023-12-04T04:53:37;0.50;;;0.40;;
51451;SDS011;37521;52.020;-1.740;2023-12-04T04:56:08;0.40;;;0.20;;
51451;SDS011;37521;52.020;-1.740;2023-12-04T04:58:37;1.17;;;0.38;;
51451;SDS011;37521;52.020;-1.740;2023-12-04T05:01:06;1.20;;;0.40;;
51451;SDS011;37521;52.020;-1.740;2023-12-04T05:03:36;1.33;;;0.28;;
51451;SDS011;37521;52.020;-1.740;2023-12-04T05:06:05;0.30;;;0.20;;
51451;SDS011;37521;52.020;-1.740;2023-12-04T05:08:34;0.28;;;0.20;;
51451;SDS011;37521;52.020;-1.740;2023-12-04T05:11:04;0.38;;;0.20;;
51451;SDS011;37521;52.020;-1.740;2023-12-04T05:13:33;0.50;;;0.30;;
51451;SDS011;37521;52.020;-1.740;2023-12-04T05:16:02;0.10;;;0.10;;
51451;SDS011;37521;52.020;-1.740;2023-12-04T05:18:32;0.10;;;0.10;;
51451;SDS011;37521;52.020;-1.740;2023-12-04T05:21:01;0.10;;;0.10;;
51451;SDS011;37521;52.020;-1.740;2023-12-04T05:23:30;0.10;;;0.10;;
51451;SDS011;37521;52.020;-1.740;2023-12-04T05:25:58;2.05;;;0.30;;
51451;SDS011;37521;52.020;-1.740;2023-12-04T05:28:29;0.20;;;0.15;;
51451;SDS011;37521;52.020;-1.740;2023-12-04T05:30:58;0.30;;;0.30;;
51451;SDS011;37521;52.020;-1.740;2023-12-04T05:33:28;0.52;;;0.30;;
51451;SDS011;37521;52.020;-1.740;2023-12-04T05:35:56;0.20;;;0.20;;
51451;SDS011;37521;52.020;-1.740;2023-12-04T05:38:25;0.80;;;0.45;;
51451;SDS011;37521;52.020;-1.740;2023-12-04T05:40:54;0.52;;;0.22;;
51451;SDS011;37521;52.020;-1.740;2023-12-04T05:43:22;0.20;;;0.20;;
51451;SDS011;37521;52.020;-1.740;2023-12-04T05:45:52;0.20;;;0.20;;
51451;SDS011;37521;52.020;-1.740;2023-12-04T05:48:21;0.22;;;0.10;;
51451;SDS011;37521;52.020;-1.740;2023-12-04T05:50:50;2.10;;;0.45;;
51451;SDS011;37521;52.020;-1.740;2023-12-04T05:53:19;0.30;;;0.30;;
51451;SDS011;37521;52.020;-1.740;2023-12-04T05:55:47;0.20;;;0.20;;
51451;SDS011;37521;52.020;-1.740;2023-12-04T05:58:16;0.55;;;0.50;;
51451;SDS011;37521;52.020;-1.740;2023-12-04T06:00:45;0.40;;;0.40;;
51451;SDS011;37521;52.020;-1.740;2023-12-04T06:03:15;0.75;;;0.22;;
51451;SDS011;37521;52.020;-1.740;2023-12-04T06:05:44;0.17;;;0.17;;
51451;SDS011;37521;52.020;-1.740;2023-12-04T06:08:12;0.25;;;0.25;;
51451;SDS011;37521;52.020;-1.740;2023-12-04T06:10:41;0.25;;;0.25;;
51451;SDS011;37521;52.020;-1.740;2023-12-04T06:13:10;0.40;;;0.30;;
51451;SDS011;37521;52.020;-1.740;2023-12-04T06:15:39;0.20;;;0.20;;
51451;SDS011;37521;52.020;-1.740;2023-12-04T06:18:07;0.10;;;0.10;;
51451;SDS011;37521;52.020;-1.740;2023-12-04T06:20:38;0.77;;;0.22;;
51451;SDS011;37521;52.020;-1.740;2023-12-04T06:23:07;0.40;;;0.40;;
51451;SDS011;37521;52.020;-1.740;2023-12-04T06:25:36;0.40;;;0.40;;
51451;SDS011;37521;52.020;-1.740;2023-12-04T06:28:05;0.20;;;0.20;;
51451;SDS011;37521;52.020;-1.740;2023-12-04T06:30:34;0.20;;;0.20;;
51451;SDS011;37521;52.020;-1.740;2023-12-04T06:33:04;0.20;;;0.20;;
51451;SDS011;37521;52.020;-1.740;2023-12-04T06:35:33;0.38;;;0.28;;
51451;SDS011;37521;52.020;-1.740;2023-12-04T06:38:05;0.30;;;0.30;;
51451;SDS011;37521;52.020;-1.740;2023-12-04T06:40:35;1.92;;;0.40;;
51451;SDS011;37521;52.020;-1.740;2023-12-04T06:43:05;0.35;;;0.35;;
51451;SDS011;37521;52.020;-1.740;2023-12-04T06:45:35;0.40;;;0.40;;
51451;SDS011;37521;52.020;-1.740;2023-12-04T06:48:04;2.25;;;0.77;;
51451;SDS011;37521;52.020;-1.740;2023-12-04T06:50:35;0.60;;;0.60;;
51451;SDS011;37521;52.020;-1.740;2023-12-04T06:53:05;0.85;;;0.80;;
51451;SDS011;37521;52.020;-1.740;2023-12-04T06:55:34;0.40;;;0.35;;
51451;SDS011;37521;52.020;-1.740;2023-12-04T06:58:03;0.45;;;0.40;;
51451;SDS011;37521;52.020;-1.740;2023-12-04T07:00:32;0.47;;;0.47;;
51451;SDS011;37521;52.020;-1.740;2023-12-04T07:03:00;1.15;;;0.30;;
51451;SDS011;37521;52.020;-1.740;2023-12-04T07:05:29;0.85;;;0.57;;
51451;SDS011;37521;52.020;-1.740;2023-12-04T07:07:58;0.93;;;0.82;;
51451;SDS011;37521;52.020;-1.740;2023-12-04T07:10:28;1.15;;;0.68;;
51451;SDS011;37521;52.020;-1.740;2023-12-04T07:13:01;0.73;;;0.60;;
51451;SDS011;37521;52.020;-1.740;2023-12-04T07:15:29;0.73;;;0.63;;
51451;SDS011;37521;52.020;-1.740;2023-12-04T07:17:58;0.80;;;0.80;;
51451;SDS011;37521;52.020;-1.740;2023-12-04T07:20:27;1.17;;;1.05;;
51451;SDS011;37521;52.020;-1.740;2023-12-04T07:22:56;1.15;;;0.80;;
51451;SDS011;37521;52.020;-1.740;2023-12-04T07:25:25;1.02;;;0.77;;
51451;SDS011;37521;52.020;-1.740;2023-12-04T07:27:55;1.38;;;0.88;;
51451;SDS011;37521;52.020;-1.740;2023-12-04T07:30:25;0.85;;;0.85;;
51451;SDS011;37521;52.020;-1.740;2023-12-04T07:32:54;0.80;;;0.60;;
51451;SDS011;37521;52.020;-1.740;2023-12-04T07:35:22;1.13;;;0.90;;
51451;SDS011;37521;52.020;-1.740;2023-12-04T07:37:51;1.50;;;0.93;;
51451;SDS011;37521;52.020;-1.740;2023-12-04T07:40:20;1.50;;;1.05;;
51451;SDS011;37521;52.020;-1.740;2023-12-04T07:42:49;1.63;;;1.02;;
51451;SDS011;37521;52.020;-1.740;2023-12-04T07:45:20;1.33;;;1.23;;
51451;SDS011;37521;52.020;-1.740;2023-12-04T07:47:51;1.45;;;0.80;;
51451;SDS011;37521;52.020;-1.740;2023-12-04T07:50:19;1.38;;;1.27;;
51451;SDS011;37521;52.020;-1.740;2023-12-04T07:52:48;2.15;;;1.67;;
51451;SDS011;37521;52.020;-1.740;2023-12-04T07:55:17;1.95;;;1.00;;
51451;SDS011;37521;52.020;-1.740;2023-12-04T07:57:45;2.28;;;1.17;;
51451;SDS011;37521;52.020;-1.740;2023-12-04T08:00:15;1.70;;;1.60;;
51451;SDS011;37521;52.020;-1.740;2023-12-04T08:02:46;2.03;;;1.30;;
51451;SDS011;37521;52.020;-1.740;2023-12-04T08:05:14;1.65;;;1.52;;
51451;SDS011;37521;52.020;-1.740;2023-12-04T08:07:44;2.22;;;1.77;;
51451;SDS011;37521;52.020;-1.740;2023-12-04T08:10:13;2.80;;;1.83;;
51451;SDS011;37521;52.020;-1.740;2023-12-04T08:12:44;2.45;;;1.33;;
51451;SDS011;37521;52.020;-1.740;2023-12-04T08:15:13;3.83;;;2.10;;
51451;SDS011;37521;52.020;-1.740;2023-12-04T08:17:42;1.83;;;1.60;;
51451;SDS011;37521;52.020;-1.740;2023-12-04T08:20:12;2.53;;;1.67;;
51451;SDS011;37521;52.020;-1.740;2023-12-04T08:22:50;2.35;;;1.98;;
51451;SDS011;37521;52.020;-1.740;2023-12-04T08:25:19;1.33;;;1.20;;
51451;SDS011;37521;52.020;-1.740;2023-12-04T08:27:47;1.63;;;1.52;;
51451;SDS011;37521;52.020;-1.740;2023-12-04T08:30:18;2.40;;;1.60;;
51451;SDS011;37521;52.020;-1.740;2023-12-04T08:32:46;1.83;;;1.73;;
51451;SDS011;37521;52.020;-1.740;2023-12-04T08:35:17;3.78;;;2.08;;
51451;SDS011;37521;52.020;-1.740;2023-12-04T08:37:45;1.63;;;1.52;;
51451;SDS011;37521;52.020;-1.740;2023-12-04T08:40:14;3.40;;;2.22;;
51451;SDS011;37521;52.020;-1.740;2023-12-04T08:42:44;3.42;;;2.08;;
51451;SDS011;37521;52.020;-1.740;2023-12-04T08:45:13;3.15;;;2.03;;
51451;SDS011;37521;52.020;-1.740;2023-12-04T08:47:44;2.20;;;1.80;;
51451;SDS011;37521;52.020;-1.740;2023-12-04T08:50:13;2.50;;;2.05;;
51451;SDS011;37521;52.020;-1.740;2023-12-04T08:52:43;2.42;;;1.90;;
51451;SDS011;37521;52.020;-1.740;2023-12-04T08:55:12;3.58;;;1.90;;
51451;SDS011;37521;52.020;-1.740;2023-12-04T08:57:41;3.60;;;2.10;;
51451;SDS011;37521;52.020;-1.740;2023-12-04T09:00:11;3.13;;;2.05;;
51451;SDS011;37521;52.020;-1.740;2023-12-04T09:02:40;2.75;;;2.50;;
51451;SDS011;37521;52.020;-1.740;2023-12-04T09:05:19;3.47;;;2.45;;
51451;SDS011;37521;52.020;-1.740;2023-12-04T09:07:49;4.05;;;1.75;;
51451;SDS011;37521;52.020;-1.740;2023-12-04T09:10:38;2.63;;;2.42;;
51451;SDS011;37521;52.020;-1.740;2023-12-04T09:13:26;4.03;;;1.98;;
51451;SDS011;37521;52.020;-1.740;2023-12-04T09:15:56;3.30;;;2.08;;
51451;SDS011;37521;52.020;-1.740;2023-12-04T09:18:24;2.78;;;2.05;;
51451;SDS011;37521;52.020;-1.740;2023-12-04T09:20:53;2.25;;;1.52;;
51451;SDS011;37521;52.020;-1.740;2023-12-04T09:23:23;2.28;;;1.73;;
51451;SDS011;37521;52.020;-1.740;2023-12-04T09:25:54;3.05;;;1.52;;
51451;SDS011;37521;52.020;-1.740;2023-12-04T09:28:23;3.55;;;2.45;;
51451;SDS011;37521;52.020;-1.740;2023-12-04T09:30:51;4.05;;;2.15;;
51451;SDS011;37521;52.020;-1.740;2023-12-04T09:33:20;1.70;;;1.52;;
51451;SDS011;37521;52.020;-1.740;2023-12-04T09:35:49;4.03;;;2.22;;
51451;SDS011;37521;52.020;-1.740;2023-12-04T09:38:18;2.25;;;1.85;;
51451;SDS011;37521;52.020;-1.740;2023-12-04T09:40:48;1.80;;;1.58;;
51451;SDS011;37521;52.020;-1.740;2023-12-04T09:43:20;3.50;;;1.42;;
51451;SDS011;37521;52.020;-1.740;2023-12-04T09:45:49;5.45;;;1.77;;
51451;SDS011;37521;52.020;-1.740;2023-12-04T09:48:18;3.45;;;2.20;;
51451;SDS011;37521;52.020;-1.740;2023-12-04T09:50:47;2.22;;;1.65;;
51451;SDS011;37521;52.020;-1.740;2023-12-04T09:53:16;1.58;;;1.48;;
51451;SDS011;37521;52.020;-1.740;2023-12-04T09:55:48;3.33;;;1.83;;
51451;SDS011;37521;52.020;-1.740;2023-12-04T09:58:18;2.63;;;2.25;;
51451;SDS011;37521;52.020;-1.740;2023-12-04T10:00:48;5.35;;;2.67;;
51451;SDS011;37521;52.020;-1.740;2023-12-04T10:03:17;4.22;;;2.30;;
51451;SDS011;37521;52.020;-1.740;2023-12-04T10:05:45;2.17;;;1.77;;
51451;SDS011;37521;52.020;-1.740;2023-12-04T10:08:14;2.70;;;2.35;;
51451;SDS011;37521;52.020;-1.740;2023-12-04T10:10:43;3.63;;;2.00;;
51451;SDS011;37521;52.020;-1.740;2023-12-04T10:13:13;2.30;;;1.83;;
51451;SDS011;37521;52.020;-1.740;2023-12-04T10:16:02;2.83;;;2.20;;
51451;SDS011;37521;52.020;-1.740;2023-12-04T10:18:31;2.97;;;1.95;;
51451;SDS011;37521;52.020;-1.740;2023-12-04T10:21:00;3.95;;;2.13;;
51451;SDS011;37521;52.020;-1.740;2023-12-04T10:23:37;4.25;;;2.42;;
51451;SDS011;37521;52.020;-1.740;2023-12-04T10:26:06;5.63;;;2.28;;
51451;SDS011;37521;52.020;-1.740;2023-12-04T10:28:37;3.83;;;2.00;;
51451;SDS011;37521;52.020;-1.740;2023-12-04T10:31:06;2.00;;;1.80;;
51451;SDS011;37521;52.020;-1.740;2023-12-04T10:33:35;4.55;;;3.30;;
51451;SDS011;37521;52.020;-1.740;2023-12-04T10:36:04;3.63;;;2.47;;
51451;SDS011;37521;52.020;-1.740;2023-12-04T10:38:39;3.40;;;2.55;;
51451;SDS011;37521;52.020;-1.740;2023-12-04T10:41:11;4.13;;;2.55;;
51451;SDS011;37521;52.020;-1.740;2023-12-04T10:43:47;5.17;;;2.60;;
51451;SDS011;37521;52.020;-1.740;2023-12-04T10:46:27;5.45;;;2.90;;
51451;SDS011;37521;52.020;-1.740;2023-12-04T10:48:56;3.78;;;2.83;;
51451;SDS011;37521;52.020;-1.740;2023-12-04T10:51:27;2.80;;;2.13;;
51451;SDS011;37521;52.020;-1.740;2023-12-04T10:53:57;4.25;;;2.35;;
51451;SDS011;37521;52.020;-1.740;2023-12-04T10:56:31;2.90;;;1.58;;
51451;SDS011;37521;52.020;-1.740;2023-12-04T10:59:08;2.72;;;2.00;;
51451;SDS011;37521;52.020;-1.740;2023-12-04T11:01:39;3.67;;;2.33;;
51451;SDS011;37521;52.020;-1.740;2023-12-04T11:04:16;3.45;;;2.28;;
51451;SDS011;37521;52.020;-1.740;2023-12-04T11:06:48;2.15;;;1.83;;
51451;SDS011;37521;52.020;-1.740;2023-12-04T11:09:20;1.63;;;1.40;;
51451;SDS011;37521;52.020;-1.740;2023-12-04T11:11:55;2.63;;;1.85;;
51451;SDS011;37521;52.020;-1.740;2023-12-04T11:14:29;4.18;;;2.05;;
51451;SDS011;37521;52.020;-1.740;2023-12-04T11:17:06;2.72;;;2.03;;
51451;SDS011;37521;52.020;-1.740;2023-12-04T11:19:39;2.55;;;2.33;;
51451;SDS011;37521;52.020;-1.740;2023-12-04T11:22:16;3.80;;;2.30;;
51451;SDS011;37521;52.020;-1.740;2023-12-04T11:24:47;2.17;;;1.60;;
51451;SDS011;37521;52.020;-1.740;2023-12-04T11:27:16;3.60;;;1.98;;
51451;SDS011;37521;52.020;-1.740;2023-12-04T11:29:47;3.50;;;2.72;;
51451;SDS011;37521;52.020;-1.740;2023-12-04T11:32:17;2.22;;;1.98;;
51451;SDS011;37521;52.020;-1.740;2023-12-04T11:34:49;3.42;;;2.20;;
51451;SDS011;37521;52.020;-1.740;2023-12-04T11:37:19;3.15;;;1.85;;
51451;SDS011;37521;52.020;-1.740;2023-12-04T11:39:49;5.25;;;2.42;;
51451;SDS011;37521;52.020;-1.740;2023-12-04T11:42:18;3.05;;;2.30;;
51451;SDS011;37521;52.020;-1.740;2023-12-04T11:44:50;2.38;;;2.17;;
51451;SDS011;37521;52.020;-1.740;2023-12-04T11:47:25;4.22;;;2.20;;
51451;SDS011;37521;52.020;-1.740;2023-12-04T11:49:57;2.90;;;2.30;;
51451;SDS011;37521;52.020;-1.740;2023-12-04T11:52:32;3.95;;;2.17;;
51451;SDS011;37521;52.020;-1.740;2023-12-04T11:55:02;3.55;;;2.40;;
51451;SDS011;37521;52.020;-1.740;2023-12-04T11:57:34;4.55;;;1.83;;
51451;SDS011;37521;52.020;-1.740;2023-12-04T12:00:19;3.05;;;2.10;;
51451;SDS011;37521;52.020;-1.740;2023-12-04T12:03:00;2.97;;;2.22;;
51451;SDS011;37521;52.020;-1.740;2023-12-04T12:05:48;3.45;;;2.42;;
51451;SDS011;37521;52.020;-1.740;2023-12-04T12:08:20;2.70;;;2.25;;
51451;SDS011;37521;52.020;-1.740;2023-12-04T12:10:51;2.33;;;1.75;;
51451;SDS011;37521;52.020;-1.740;2023-12-04T12:13:21;2.97;;;2.38;;
51451;SDS011;37521;52.020;-1.740;2023-12-04T12:15:54;6.68;;;3.83;;
51451;SDS011;37521;52.020;-1.740;2023-12-04T12:18:25;7.20;;;4.03;;
51451;SDS011;37521;52.020;-1.740;2023-12-04T12:20:55;6.15;;;4.20;;
51451;SDS011;37521;52.020;-1.740;2023-12-04T12:23:24;9.10;;;4.55;;
51451;SDS011;37521;52.020;-1.740;2023-12-04T12:26:01;6.68;;;3.28;;
51451;SDS011;37521;52.020;-1.740;2023-12-04T12:28:31;5.82;;;3.45;;
51451;SDS011;37521;52.020;-1.740;2023-12-04T12:31:03;4.82;;;3.33;;
51451;SDS011;37521;52.020;-1.740;2023-12-04T12:33:32;4.28;;;2.78;;
51451;SDS011;37521;52.020;-1.740;2023-12-04T12:36:01;3.45;;;2.28;;
51451;SDS011;37521;52.020;-1.740;2023-12-04T12:38:31;4.00;;;2.75;;
51451;SDS011;37521;52.020;-1.740;2023-12-04T12:41:05;3.83;;;2.33;;
51451;SDS011;37521;52.020;-1.740;2023-12-04T12:43:37;5.22;;;2.92;;
51451;SDS011;37521;52.020;-1.740;2023-12-04T12:46:07;3.40;;;2.72;;
51451;SDS011;37521;52.020;-1.740;2023-12-04T12:48:36;5.65;;;2.88;;
51451;SDS011;37521;52.020;-1.740;2023-12-04T12:51:06;4.38;;;2.72;;
51451;SDS011;37521;52.020;-1.740;2023-12-04T12:53:38;3.75;;;2.72;;
51451;SDS011;37521;52.020;-1.740;2023-12-04T12:56:10;5.10;;;2.95;;
51451;SDS011;37521;52.020;-1.740;2023-12-04T12:58:39;3.22;;;2.60;;
51451;SDS011;37521;52.020;-1.740;2023-12-04T13:01:11;3.22;;;2.22;;
51451;SDS011;37521;52.020;-1.740;2023-12-04T13:03:44;3.38;;;2.10;;
51451;SDS011;37521;52.020;-1.740;2023-12-04T13:06:14;3.25;;;2.30;;
51451;SDS011;37521;52.020;-1.740;2023-12-04T13:08:44;4.88;;;3.10;;
51451;SDS011;37521;52.020;-1.740;2023-12-04T13:11:13;4.75;;;3.10;;
51451;SDS011;37521;52.020;-1.740;2023-12-04T13:13:43;5.07;;;3.28;;
51451;SDS011;37521;52.020;-1.740;2023-12-04T13:16:13;3.45;;;2.72;;
51451;SDS011;37521;52.020;-1.740;2023-12-04T13:18:42;4.13;;;2.55;;
51451;SDS011;37521;52.020;-1.740;2023-12-04T13:21:11;4.13;;;2.67;;
51451;SDS011;37521;52.020;-1.740;2023-12-04T13:23:40;5.22;;;3.28;;
51451;SDS011;37521;52.020;-1.740;2023-12-04T13:26:08;3.80;;;2.67;;
51451;SDS011;37521;52.020;-1.740;2023-12-04T13:28:37;3.00;;;2.53;;
51451;SDS011;37521;52.020;-1.740;2023-12-04T13:31:10;3.13;;;2.50;;
51451;SDS011;37521;52.020;-1.740;2023-12-04T13:33:40;2.67;;;2.17;;
51451;SDS011;37521;52.020;-1.740;2023-12-04T13:36:10;4.82;;;2.90;;
51451;SDS011;37521;52.020;-1.740;2023-12-04T13:38:39;4.07;;;2.88;;
51451;SDS011;37521;52.020;-1.740;2023-12-04T13:41:08;4.40;;;2.85;;
51451;SDS011;37521;52.020;-1.740;2023-12-04T13:43:57;4.30;;;2.92;;
51451;SDS011;37521;52.020;-1.740;2023-12-04T13:46:26;3.90;;;2.92;;
51451;SDS011;37521;52.020;-1.740;2023-12-04T13:48:58;5.35;;;3.10;;
51451;SDS011;37521;52.020;-1.740;2023-12-04T13:51:27;3.78;;;2.85;;
51451;SDS011;37521;52.020;-1.740;2023-12-04T13:53:56;3.22;;;2.83;;
51451;SDS011;37521;52.020;-1.740;2023-12-04T13:56:36;4.13;;;2.60;;
51451;SDS011;37521;52.020;-1.740;2023-12-04T13:59:19;2.92;;;2.60;;
51451;SDS011;37521;52.020;-1.740;2023-12-04T14:01:49;3.35;;;2.88;;
51451;SDS011;37521;52.020;-1.740;2023-12-04T14:04:24;4.07;;;2.42;;
51451;SDS011;37521;52.020;-1.740;2023-12-04T14:06:54;4.20;;;2.58;;
51451;SDS011;37521;52.020;-1.740;2023-12-04T14:09:28;7.28;;;3.40;;
51451;SDS011;37521;52.020;-1.740;2023-12-04T14:11:56;3.53;;;2.80;;
51451;SDS011;37521;52.020;-1.740;2023-12-04T14:14:25;2.58;;;2.35;;
51451;SDS011;37521;52.020;-1.740;2023-12-04T14:16:54;2.60;;;2.05;;
51451;SDS011;37521;52.020;-1.740;2023-12-04T14:19:24;3.40;;;2.33;;
51451;SDS011;37521;52.020;-1.740;2023-12-04T14:21:54;3.08;;;2.65;;
51451;SDS011;37521;52.020;-1.740;2023-12-04T14:24:23;3.58;;;2.63;;
51451;SDS011;37521;52.020;-1.740;2023-12-04T14:26:52;4.10;;;2.75;;
51451;SDS011;37521;52.020;-1.740;2023-12-04T14:29:21;3.72;;;2.42;;
51451;SDS011;37521;52.020;-1.740;2023-12-04T14:31:50;2.47;;;2.28;;
51451;SDS011;37521;52.020;-1.740;2023-12-04T14:34:19;2.45;;;2.25;;
51451;SDS011;37521;52.020;-1.740;2023-12-04T14:36:49;2.92;;;2.40;;
51451;SDS011;37521;52.020;-1.740;2023-12-04T14:39:18;4.07;;;2.75;;
51451;SDS011;37521;52.020;-1.740;2023-12-04T14:41:46;2.92;;;2.50;;
51451;SDS011;37521;52.020;-1.740;2023-12-04T14:44:15;3.35;;;2.42;;
51451;SDS011;37521;52.020;-1.740;2023-12-04T14:46:44;3.22;;;2.58;;
51451;SDS011;37521;52.020;-1.740;2023-12-04T14:49:13;3.53;;;2.50;;
51451;SDS011;37521;52.020;-1.740;2023-12-04T14:51:41;3.25;;;2.63;;